Time;durP1;ratioP1;P1;durP2;ratioP2;P2;SDS_P1;SDS_P2;PMS_P1;PMS_P2;Temp;Humidity;BMP_temperature;BMP_pressure;BME280_temperature;BME280_humidity;BME280_pressure;Samples;Min_cycle;Max_cycle;Signal;HPM_P1;HPM_P2
2021/11/12 00:14:23;;;;;;;9.73;6.38;;;;;;;21.80;46.87;102259.84;5063376;28;20044;-71
2021/11/12 00:16:48;;;;;;;12.07;7.20;;;;;;;21.83;46.67;102255.03;5061620;28;20131;-71
2021/11/12 00:19:14;;;;;;;11.27;7.07;;;;;;;21.78;46.76;102254.69;5063836;28;20047;-71
2021/11/12 00:21:40;;;;;;;13.82;7.63;;;;;;;21.79;46.60;102259.00;5062537;28;20394;-71
2021/11/12 00:24:05;;;;;;;11.43;6.97;;;;;;;21.74;46.99;102249.88;5056446;28;20045;-72
2021/11/12 00:26:31;;;;;;;8.32;6.25;;;;;;;21.74;46.99;102249.88;5063916;28;20607;-72
2021/11/12 00:29:00;;;;;;;9.27;7.18;;;;;;;21.74;46.98;102248.06;5062056;28;20036;-72
2021/11/12 00:31:57;;;;;;;9.00;6.45;;;;;;;21.70;46.77;102247.50;5061164;28;20050;-72
2021/11/12 00:37:26;;;;;;;11.25;6.95;;;;;;;21.61;46.91;102234.38;4984959;28;20543;-72
2021/11/12 00:40:01;;;;;;;10.43;6.55;;;;;;;21.68;46.96;102238.06;4978304;28;20153;-72
2021/11/12 00:47:33;;;;;;;9.20;6.80;;;;;;;21.56;46.99;102234.03;5064143;28;20420;-72
2021/11/12 00:50:09;;;;;;;9.90;6.45;;;;;;;21.50;47.01;102216.91;5064422;28;20044;-72
2021/11/12 00:55:17;;;;;;;10.88;6.95;;;;;;;21.57;47.07;102225.09;5064023;28;20044;-72
2021/11/12 00:57:43;;;;;;;12.30;7.03;;;;;;;21.47;47.17;102225.19;5062098;28;20040;-72
2021/11/12 01:00:10;;;;;;;11.77;7.00;;;;;;;21.43;47.09;102226.50;5062434;28;20051;-72
2021/11/12 01:02:36;;;;;;;9.85;6.70;;;;;;;21.45;47.19;102223.69;5059447;28;20041;-72
2021/11/12 01:05:03;;;;;;;10.95;6.93;;;;;;;21.34;47.46;102214.16;5047862;28;20040;-72
2021/11/12 01:07:29;;;;;;;12.02;6.50;;;;;;;21.43;46.97;102213.25;5059589;28;20056;-72
2021/11/12 01:09:56;;;;;;;8.77;6.53;;;;;;;21.41;47.37;102216.06;5064271;28;20478;-72
2021/11/12 01:12:21;;;;;;;10.15;7.00;;;;;;;21.40;47.46;102213.56;5066019;28;20044;-72
2021/11/12 01:14:47;;;;;;;9.63;7.00;;;;;;;21.30;47.40;102205.72;5062329;28;20036;-71
2021/11/12 01:17:12;;;;;;;10.10;7.10;;;;;;;21.30;47.51;102218.97;5061837;28;20060;-72
2021/11/12 01:19:38;;;;;;;10.32;6.88;;;;;;;21.32;47.38;102221.44;5061001;28;20104;-72
2021/11/12 01:22:05;;;;;;;11.32;6.65;;;;;;;21.32;47.24;102214.34;5061069;28;20441;-72
2021/11/12 01:24:30;;;;;;;11.32;6.88;;;;;;;21.24;47.45;102208.13;5064021;28;20036;-72
2021/11/12 01:26:56;;;;;;;8.98;6.85;;;;;;;21.33;47.41;102216.00;5063721;28;20113;-72
2021/11/12 01:29:22;;;;;;;10.35;7.03;;;;;;;21.27;47.29;102207.84;5063832;28;20041;-72
2021/11/12 01:31:47;;;;;;;10.93;7.10;;;;;;;21.27;47.31;102202.56;5065605;28;20032;-72
2021/11/12 01:34:14;;;;;;;10.32;7.07;;;;;;;21.28;47.36;102198.91;5060731;28;20040;-72
2021/11/12 01:36:44;;;;;;;11.32;6.93;;;;;;;21.25;47.46;102185.97;5057742;28;20135;-72
2021/11/12 01:39:20;;;;;;;11.20;7.18;;;;;;;21.17;47.57;102186.72;5063746;28;20036;-71
2021/11/12 01:41:48;;;;;;;9.88;6.75;;;;;;;21.20;47.58;102196.19;5059708;28;20040;-71
2021/11/12 01:44:16;;;;;;;10.57;7.07;;;;;;;21.21;47.61;102198.69;5059610;28;20044;-72
2021/11/12 01:47:09;;;;;;;10.93;7.18;;;;;;;21.24;47.34;102205.47;5029255;28;20049;-71
2021/11/12 01:49:41;;;;;;;9.80;6.57;;;;;;;21.17;47.38;102199.13;5064148;28;20042;-72
2021/11/12 01:55:06;;;;;;;11.40;6.60;;;;;;;21.12;47.51;102191.66;5057572;28;20129;-71
2021/11/12 02:00:08;;;;;;;10.48;7.25;;;;;;;21.08;47.72;102192.97;5062009;28;20037;-72
2021/11/12 02:02:34;;;;;;;9.02;6.60;;;;;;;21.08;47.63;102187.66;5062510;28;20032;-71
2021/11/12 02:04:59;;;;;;;10.65;6.88;;;;;;;21.15;47.63;102179.91;5065841;28;20357;-72
2021/11/12 02:07:25;;;;;;;11.00;7.20;;;;;;;21.11;47.54;102176.75;5063463;28;20069;-72
2021/11/12 02:09:51;;;;;;;9.18;6.20;;;;;;;20.97;47.81;102161.41;5055612;28;20429;-71
2021/11/12 02:12:28;;;;;;;12.25;7.13;;;;;;;21.10;47.63;102173.28;5059011;28;20051;-71
2021/11/12 02:14:55;;;;;;;9.13;6.53;;;;;;;21.13;47.60;102170.31;5058654;28;20037;-71
2021/11/12 02:17:24;;;;;;;9.00;6.28;;;;;;;21.09;47.68;102173.44;5059667;28;20419;-72
2021/11/12 02:20:08;;;;;;;9.00;6.47;;;;;;;21.03;47.69;102172.25;5061063;28;20045;-72
2021/11/12 02:22:36;;;;;;;9.52;6.65;;;;;;;21.06;47.53;102163.97;5061078;28;20119;-72
2021/11/12 02:25:08;;;;;;;7.65;5.75;;;;;;;21.01;47.51;102157.50;5061712;28;20044;-72
2021/11/12 02:27:57;;;;;;;10.70;6.43;;;;;;;21.04;47.45;102157.19;5058772;28;20039;-71
2021/11/12 02:30:29;;;;;;;9.40;6.97;;;;;;;20.99;47.74;102165.56;5057859;28;20119;-72
2021/11/12 02:33:11;;;;;;;8.27;5.95;;;;;;;21.01;47.71;102147.72;5058343;28;20040;-72
2021/11/12 02:35:59;;;;;;;8.90;6.50;;;;;;;20.91;47.68;102133.75;5059835;28;20048;-71
2021/11/12 02:38:25;;;;;;;9.07;6.97;;;;;;;20.97;47.59;102140.22;5044679;28;20041;-72
2021/11/12 02:40:51;;;;;;;9.15;6.57;;;;;;;20.84;47.62;102113.34;5063228;28;20555;-72
2021/11/12 02:43:18;;;;;;;8.40;6.35;;;;;;;20.92;47.78;102142.53;5062550;28;20079;-72
2021/11/12 02:45:44;;;;;;;10.02;6.38;;;;;;;20.92;47.66;102143.34;5062623;28;20016;-72
2021/11/12 02:48:11;;;;;;;10.38;6.68;;;;;;;20.99;47.24;102140.91;5058446;28;20024;-72
2021/11/12 02:50:40;;;;;;;8.60;6.50;;;;;;;20.87;47.80;102144.81;5064934;28;20048;-72
2021/11/12 02:53:15;;;;;;;9.35;6.05;;;;;;;20.92;47.65;102150.47;5062728;28;20044;-72
2021/11/12 02:55:42;;;;;;;10.45;7.43;;;;;;;20.91;47.71;102146.16;5062984;28;20573;-71
2021/11/12 02:58:09;;;;;;;9.35;6.88;;;;;;;20.85;47.79;102144.16;5046365;28;20672;-71
2021/11/12 03:00:37;;;;;;;10.65;7.18;;;;;;;20.84;47.74;102138.00;5062027;28;20079;-72
2021/11/12 03:03:04;;;;;;;9.30;6.35;;;;;;;20.81;47.91;102139.13;5064964;28;20503;-71
2021/11/12 03:05:31;;;;;;;10.43;7.07;;;;;;;20.81;47.63;102128.53;5064198;28;20044;-72
2021/11/12 03:07:56;;;;;;;8.50;6.50;;;;;;;20.83;47.74;102140.81;5061673;28;20040;-72
2021/11/12 03:10:22;;;;;;;9.13;6.43;;;;;;;20.81;47.98;102136.47;5059343;28;20040;-72
2021/11/12 03:12:48;;;;;;;8.93;6.28;;;;;;;20.81;48.00;102131.19;5059784;28;20427;-71
2021/11/12 03:15:14;;;;;;;12.50;7.78;;;;;;;20.74;48.07;102122.22;5063171;28;20401;-71
2021/11/12 03:17:40;;;;;;;9.30;6.63;;;;;;;20.80;47.70;102126.88;5064239;28;20068;-71
2021/11/12 03:20:07;;;;;;;9.23;6.05;;;;;;;20.75;48.03;102115.09;5054042;28;20045;-71
2021/11/12 03:22:40;;;;;;;9.75;6.72;;;;;;;20.76;47.88;102109.66;5055445;28;20133;-71
2021/11/12 03:25:22;;;;;;;9.07;6.13;;;;;;;20.70;48.18;102112.94;5064238;28;20060;-72
2021/11/12 03:28:06;;;;;;;9.43;6.57;;;;;;;20.59;48.03;102076.09;5062908;28;20047;-71
2021/11/12 03:50:15;;;;;;;10.05;7.03;;;;;;;20.59;48.26;102072.63;5010785;28;20467;-71
2021/11/12 04:01:30;;;;;;;10.18;6.53;;;;;;;20.63;47.99;102077.44;5064136;28;20047;-71
2021/11/12 05:02:41;;;;;;;9.80;6.22;;;;;;;20.60;47.94;101986.97;5050049;28;20079;-71
2021/11/12 05:44:04;;;;;;;8.60;6.13;;;;;;;22.74;44.04;101959.59;5062720;28;20522;-71
2021/11/12 05:57:13;;;;;;;8.43;5.85;;;;;;;22.27;44.86;101944.47;5062645;28;20375;-72
2021/11/12 05:59:38;;;;;;;8.30;5.55;;;;;;;22.26;45.17;101945.44;5065824;28;20588;-71
2021/11/12 06:02:05;;;;;;;7.13;5.53;;;;;;;22.29;44.88;101942.47;5064291;28;20098;-72
2021/11/12 06:04:31;;;;;;;8.68;5.63;;;;;;;22.18;44.97;101929.56;5064281;28;20036;-72
2021/11/12 06:06:56;;;;;;;7.72;5.93;;;;;;;22.18;44.94;101933.03;5064915;28;21307;-72
2021/11/12 06:09:23;;;;;;;7.30;5.78;;;;;;;22.16;45.00;101926.25;5060982;28;20110;-72
2021/11/12 06:11:52;;;;;;;8.50;6.10;;;;;;;22.19;45.23;101923.25;5064418;28;20102;-72
2021/11/12 06:14:18;;;;;;;7.80;5.68;;;;;;;22.15;45.22;101917.47;5062782;28;20055;-72
2021/11/12 06:16:43;;;;;;;8.93;6.03;;;;;;;22.02;45.49;101920.59;5057664;28;20483;-71
2021/11/12 06:19:09;;;;;;;9.25;5.88;;;;;;;21.96;45.68;101923.09;5056776;28;20032;-72
2021/11/12 06:21:34;;;;;;;7.68;5.50;;;;;;;21.95;45.54;101924.09;5065265;28;20040;-72
2021/11/12 06:24:00;;;;;;;8.00;5.85;;;;;;;21.92;45.49;101919.13;5059063;28;20044;-72
2021/11/12 06:26:26;;;;;;;7.80;5.60;;;;;;;21.94;45.77;101909.16;5060111;28;20071;-72
2021/11/12 06:28:53;;;;;;;9.55;5.82;;;;;;;21.92;45.65;101919.13;5062944;28;20119;-72
2021/11/12 06:31:20;;;;;;;9.65;5.65;;;;;;;22.02;45.24;101925.06;5063387;28;20037;-72
2021/11/12 06:33:49;;;;;;;7.70;5.63;;;;;;;22.12;45.05;101928.41;5061364;28;20045;-72
2021/11/12 06:36:15;;;;;;;;;;;;;;;22.12;45.27;101930.22;5061075;28;20053;-72
2021/11/12 06:38:41;;;;;;;8.05;5.82;;;;;;;22.25;44.99;101917.25;5065048;28;20073;-71
2021/11/12 06:41:11;;;;;;;8.75;6.07;;;;;;;22.36;44.75;101903.63;5065515;28;20460;-71
2021/11/12 06:51:37;;;;;;;8.20;6.00;;;;;;;22.42;44.34;101900.28;5062514;28;20054;-71
2021/11/12 06:54:03;;;;;;;8.52;5.72;;;;;;;22.39;44.59;101902.47;5065520;28;20044;-72
2021/11/12 06:56:28;;;;;;;7.50;6.03;;;;;;;22.31;44.73;101901.50;5065247;28;20043;-72
2021/11/12 06:58:54;;;;;;;9.23;6.13;;;;;;;22.29;44.61;101906.16;5069085;28;20120;-71
2021/11/12 07:01:19;;;;;;;8.60;5.65;;;;;;;22.34;44.61;101904.81;5066852;28;20041;-71
2021/11/12 07:03:45;;;;;;;8.18;5.43;;;;;;;22.23;44.92;101909.47;5067505;28;20040;-72
2021/11/12 07:06:11;;;;;;;9.50;6.18;;;;;;;22.19;45.09;101912.63;5065250;28;20036;-71
2021/11/12 07:08:37;;;;;;;8.30;5.68;;;;;;;22.16;45.01;101912.97;5064526;28;20484;-71
2021/11/12 07:11:02;;;;;;;8.68;5.70;;;;;;;22.13;45.04;101915.97;5064005;28;20032;-71
2021/11/12 07:13:29;;;;;;;7.78;5.80;;;;;;;22.02;45.33;101898.53;5061325;28;20491;-71
2021/11/12 07:15:56;;;;;;;7.53;5.63;;;;;;;22.09;45.50;101901.41;5058823;28;20156;-73
2021/11/12 07:18:24;;;;;;;8.60;5.78;;;;;;;21.86;46.16;101893.25;5061991;28;20051;-69
2021/11/12 07:20:51;;;;;;;10.55;6.03;;;;;;;20.92;48.74;101890.97;5061524;28;20048;-66
2021/11/12 07:23:23;;;;;;;8.77;6.10;;;;;;;20.84;48.83;101893.63;5065898;28;20147;-66
2021/11/12 07:25:50;;;;;;;9.57;6.25;;;;;;;20.76;48.99;101892.59;5065158;28;20564;-65
2021/11/12 07:28:16;;;;;;;8.38;5.35;;;;;;;20.78;48.83;101892.41;5066148;28;20044;-66
2021/11/12 07:30:43;;;;;;;9.95;5.90;;;;;;;20.90;48.64;101887.66;5062431;28;20040;-66
2021/11/12 07:33:11;;;;;;;7.78;5.43;;;;;;;20.96;48.51;101898.44;5060804;28;20040;-66
2021/11/12 07:35:44;;;;;;;8.30;5.18;;;;;;;21.22;47.66;101890.41;5064280;28;20256;-66
2021/11/12 07:38:13;;;;;;;7.47;5.50;;;;;;;21.49;47.01;101885.81;5062004;28;20057;-66
2021/11/12 07:46:07;;;;;;;8.82;5.65;;;;;;;21.35;47.36;101896.06;5037557;28;20045;-66
2021/11/12 07:48:32;;;;;;;8.45;5.80;;;;;;;21.28;47.64;101895.06;5059519;28;20135;-66
2021/11/12 07:50:58;;;;;;;8.52;6.07;;;;;;;21.16;47.90;101888.38;5058508;28;20045;-66
2021/11/12 07:53:25;;;;;;;8.32;5.20;;;;;;;21.08;48.18;101889.22;5058800;28;20036;-67
2021/11/12 07:55:53;;;;;;;8.48;5.50;;;;;;;21.05;48.18;101889.53;5065459;28;20551;-67
2021/11/12 07:58:20;;;;;;;7.60;5.28;;;;;;;21.05;48.22;101878.13;5068178;28;20488;-66
2021/11/12 08:00:46;;;;;;;8.02;5.65;;;;;;;21.10;48.21;101878.44;5062172;28;20032;-66
2021/11/12 08:03:13;;;;;;;8.48;5.60;;;;;;;21.08;48.49;101883.09;5061996;28;20037;-66
2021/11/12 08:05:41;;;;;;;7.47;5.20;;;;;;;21.00;48.23;101875.09;5066747;28;20562;-66
2021/11/12 08:08:10;;;;;;;8.75;5.18;;;;;;;21.03;48.50;101880.09;5061408;28;20048;-66
2021/11/12 08:10:45;;;;;;;9.50;5.68;;;;;;;21.02;48.41;101875.78;5063850;28;20513;-66
2021/11/12 08:13:15;;;;;;;9.32;5.72;;;;;;;21.01;48.47;101884.75;5068716;28;20040;-66
2021/11/12 08:20:59;;;;;;;7.80;5.10;;;;;;;20.97;48.63;101878.91;5064224;28;20048;-66
2021/11/12 08:23:41;;;;;;;10.05;6.82;;;;;;;21.03;48.02;101893.34;5062322;28;20032;-64
2021/11/12 08:26:12;;;;;;;10.20;6.13;;;;;;;20.77;48.94;101883.66;5067193;28;20390;-65
2021/11/12 08:33:45;;;;;;;7.38;5.80;;;;;;;20.60;49.44;101859.94;5059842;28;20459;-65
2021/11/12 08:36:31;;;;;;;8.43;5.53;;;;;;;20.65;49.32;101855.84;5060717;28;20139;-65
2021/11/12 08:39:11;;;;;;;8.30;5.40;;;;;;;20.59;49.31;101861.75;5057425;28;20044;-64
2021/11/12 08:41:42;;;;;;;;;;;;;;;20.62;49.43;101855.31;5062188;28;20440;-64
2021/11/12 08:44:20;;;;;;;8.70;5.88;;;;;;;20.82;48.84;101843.44;5062498;28;19947;-64
2021/11/12 08:47:06;;;;;;;7.35;5.32;;;;;;;20.79;48.94;101833.19;5045992;28;20552;-64
2021/11/12 08:49:32;;;;;;;7.32;5.15;;;;;;;20.63;49.24;101828.69;5063792;28;20382;-64
2021/11/12 08:51:59;;;;;;;7.82;5.72;;;;;;;20.68;49.36;101821.09;5066631;28;20048;-64
2021/11/12 08:54:32;;;;;;;8.93;5.47;;;;;;;20.74;48.95;101819.63;5059985;28;20052;-64
2021/11/12 08:56:57;;;;;;;7.95;5.60;;;;;;;20.72;49.13;101824.25;5063653;28;20116;-64
2021/11/12 08:59:24;;;;;;;8.45;5.78;;;;;;;20.66;49.13;101823.09;5061725;28;20037;-64
2021/11/12 09:01:50;;;;;;;10.45;6.40;;;;;;;20.75;48.94;101824.75;5059090;28;20061;-64
2021/11/12 09:04:15;;;;;;;8.25;5.70;;;;;;;20.70;48.99;101820.94;5064907;28;20036;-64
2021/11/12 09:06:42;;;;;;;9.63;6.18;;;;;;;20.65;49.15;101816.13;5062720;28;20344;-64
2021/11/12 09:09:08;;;;;;;8.63;5.28;;;;;;;20.72;48.98;101818.97;5063751;28;20036;-64
2021/11/12 09:11:34;;;;;;;9.32;5.85;;;;;;;20.56;49.57;101826.84;5059609;28;20040;-63
2021/11/12 09:14:02;;;;;;;9.05;5.88;;;;;;;20.62;49.31;101815.59;5063078;28;20468;-64
2021/11/12 09:16:33;;;;;;;6.72;5.25;;;;;;;20.66;49.34;101806.38;5061282;28;20119;-64
2021/11/12 09:18:59;;;;;;;7.30;5.15;;;;;;;20.85;48.59;101806.09;5060518;28;20047;-64
2021/11/12 09:21:29;;;;;;;6.18;4.75;;;;;;;20.88;48.60;101808.41;5059412;28;20036;-64
2021/11/12 09:23:56;;;;;;;8.63;5.60;;;;;;;21.01;48.10;101798.19;5057930;28;20083;-64
2021/11/12 09:26:23;;;;;;;8.52;5.63;;;;;;;21.06;47.97;101803.81;5059909;28;20987;-64
2021/11/12 09:28:48;;;;;;;7.90;5.68;;;;;;;20.98;48.22;101793.19;5063105;28;20097;-64
2021/11/12 09:31:16;;;;;;;9.55;5.65;;;;;;;21.01;48.32;101800.00;5059804;28;20033;-64
2021/11/12 09:33:42;;;;;;;7.40;5.38;;;;;;;20.94;48.52;101794.50;5060877;28;20524;-64
2021/11/12 09:36:09;;;;;;;7.47;5.50;;;;;;;20.99;48.29;101776.31;5061601;28;20048;-64
2021/11/12 09:38:35;;;;;;;8.57;5.35;;;;;;;20.90;48.48;101761.41;5059452;28;20036;-64
2021/11/12 09:41:02;;;;;;;8.55;5.30;;;;;;;20.89;48.63;101772.16;5059139;28;20043;-64
2021/11/12 09:43:27;;;;;;;7.78;5.38;;;;;;;20.99;48.34;101767.53;5061391;28;20201;-64
2021/11/12 09:45:53;;;;;;;8.82;5.35;;;;;;;20.89;48.64;101765.06;5064105;28;20037;-64
2021/11/12 09:48:20;;;;;;;8.75;5.20;;;;;;;20.89;48.40;101757.13;5062449;28;20039;-64
2021/11/12 09:50:46;;;;;;;7.53;5.43;;;;;;;20.79;48.89;101759.91;5044810;28;20024;-64
2021/11/12 09:53:12;;;;;;;8.35;5.63;;;;;;;20.81;48.82;101751.78;5062941;28;20565;-64
2021/11/12 09:55:40;;;;;;;7.03;5.22;;;;;;;20.75;49.00;101750.63;5058420;28;20421;-64
2021/11/12 09:58:06;;;;;;;9.25;5.90;;;;;;;20.72;49.02;101737.72;5062541;28;20072;-64
2021/11/12 10:00:34;;;;;;;6.68;4.90;;;;;;;20.68;49.11;101738.22;5065399;28;20507;-63
2021/11/12 10:03:01;;;;;;;7.50;5.72;;;;;;;20.55;49.56;101740.53;5066709;28;20044;-64
2021/11/12 10:05:40;;;;;;;7.85;4.78;;;;;;;20.52;49.44;101742.50;5062573;28;20052;-64
2021/11/12 10:08:22;;;;;;;7.72;5.50;;;;;;;20.64;49.21;101739.53;5065365;28;20050;-64
2021/11/12 10:10:51;;;;;;;6.80;5.00;;;;;;;20.66;49.14;101735.75;5065049;28;20035;-64
2021/11/12 10:13:38;;;;;;;7.60;5.25;;;;;;;20.63;49.14;101738.69;5064899;28;20068;-64
2021/11/12 10:19:02;;;;;;;6.68;4.88;;;;;;;20.58;49.27;101740.19;5065345;28;20040;-64
2021/11/12 10:21:36;;;;;;;8.02;5.53;;;;;;;20.49;49.55;101734.06;5057956;28;20032;-64
2021/11/12 10:24:27;;;;;;;6.78;5.30;;;;;;;20.39;49.76;101725.41;5062112;28;20569;-64
2021/11/12 10:26:57;;;;;;;7.63;5.35;;;;;;;20.44;49.51;101723.94;5062638;28;20532;-64
2021/11/12 10:29:27;;;;;;;8.38;5.63;;;;;;;20.35;49.84;101713.50;5065113;28;20035;-64
2021/11/12 10:32:01;;;;;;;6.97;5.03;;;;;;;20.44;49.58;101715.19;5065626;28;20042;-64
2021/11/12 10:34:33;;;;;;;7.60;5.75;;;;;;;20.44;49.51;101707.25;5066380;28;20139;-64
2021/11/12 10:37:01;;;;;;;7.00;5.35;;;;;;;20.43;49.69;101693.19;5062310;28;20547;-64
2021/11/12 10:39:38;;;;;;;6.43;5.03;;;;;;;20.34;49.76;101694.16;5064427;28;20414;-64
2021/11/12 10:42:13;;;;;;;7.15;5.25;;;;;;;20.26;50.04;101690.63;5063161;28;20412;-64
2021/11/12 10:44:45;;;;;;;7.55;5.10;;;;;;;20.23;50.08;101682.03;5063663;28;20032;-64
2021/11/12 10:47:11;;;;;;;8.52;5.50;;;;;;;20.30;49.91;101679.59;5065921;28;20044;-64
2021/11/12 10:49:40;;;;;;;7.00;5.40;;;;;;;20.31;49.83;101675.13;5065492;28;20091;-64
2021/11/12 10:52:11;;;;;;;6.88;5.03;;;;;;;20.30;49.91;101665.53;5065208;28;20040;-64
2021/11/12 10:54:59;;;;;;;7.22;5.40;;;;;;;20.27;49.71;101656.09;5065926;28;20049;-64
2021/11/12 10:57:44;;;;;;;8.43;5.47;;;;;;;20.22;50.05;101664.53;5064542;28;20040;-64
2021/11/12 11:00:13;;;;;;;6.82;5.03;;;;;;;20.29;49.80;101659.44;5065190;28;20076;-64
2021/11/12 11:02:46;;;;;;;7.40;5.60;;;;;;;20.22;49.96;101648.66;5063825;28;20040;-64
2021/11/12 11:05:16;;;;;;;8.80;5.28;;;;;;;20.22;50.00;101648.66;5063537;28;20036;-64
2021/11/12 11:07:55;;;;;;;9.15;5.75;;;;;;;20.29;49.79;101642.69;5063313;28;20044;-64
2021/11/12 11:10:39;;;;;;;8.32;5.40;;;;;;;20.31;49.75;101641.56;5063382;28;20440;-64
2021/11/12 11:13:10;;;;;;;6.65;5.38;;;;;;;20.20;50.05;101636.59;5064971;28;20105;-65
2021/11/12 11:16:04;;;;;;;9.27;6.10;;;;;;;20.18;49.87;101630.63;5055363;28;20036;-66
2021/11/12 11:18:40;;;;;;;6.35;5.13;;;;;;;20.25;49.79;101633.44;5033657;28;20079;-65
2021/11/12 11:21:14;;;;;;;7.53;5.05;;;;;;;20.24;49.86;101629.97;5056292;28;20040;-64
2021/11/12 11:23:44;;;;;;;8.40;5.60;;;;;;;20.28;49.61;101631.28;5057870;28;20039;-65
2021/11/12 11:26:11;;;;;;;7.50;5.45;;;;;;;20.44;49.18;101626.06;5042750;28;20505;-65
2021/11/12 11:28:37;;;;;;;6.60;4.97;;;;;;;20.59;48.99;101622.75;5058286;28;20132;-65
2021/11/12 11:31:12;;;;;;;6.88;5.72;;;;;;;20.52;49.03;101627.91;5056591;28;20563;-65
2021/11/12 11:33:41;;;;;;;8.23;5.53;;;;;;;20.56;48.83;101617.81;5057894;28;20486;-65
2021/11/12 11:36:09;;;;;;;7.22;5.43;;;;;;;20.37;49.45;101616.28;5060501;28;20041;-65
2021/11/12 11:38:39;;;;;;;7.00;5.53;;;;;;;20.30;49.64;101605.53;5046106;28;20040;-65
2021/11/12 11:41:07;;;;;;;7.30;5.15;;;;;;;20.29;49.61;101605.66;5059704;28;20040;-65
2021/11/12 11:43:33;;;;;;;8.82;5.60;;;;;;;20.31;49.53;101590.50;5061933;28;20090;-65
2021/11/12 11:46:06;;;;;;;10.23;5.65;;;;;;;20.34;49.53;101600.75;5057151;28;20071;-65
2021/11/12 11:48:34;;;;;;;8.25;5.68;;;;;;;20.37;49.41;101587.19;5062189;28;20047;-65
2021/11/12 11:51:02;;;;;;;7.70;5.50;;;;;;;20.24;49.83;101585.00;5063333;28;20028;-64
2021/11/12 11:53:43;;;;;;;8.15;5.18;;;;;;;20.26;49.62;101561.03;5063400;28;20052;-64
2021/11/12 11:56:30;;;;;;;7.43;5.47;;;;;;;20.16;49.85;101553.28;5061829;28;21156;-64
2021/11/12 11:58:56;;;;;;;9.32;5.50;;;;;;;20.22;49.80;101549.97;5063976;28;20558;-64
2021/11/12 12:01:22;;;;;;;7.65;5.65;;;;;;;20.18;49.63;101543.38;5066199;28;20456;-64
2021/11/12 12:03:49;;;;;;;8.35;5.72;;;;;;;20.24;49.62;101553.28;5065414;28;20538;-64
2021/11/12 12:06:19;;;;;;;8.18;5.80;;;;;;;20.25;49.70;101546.16;5064352;28;20119;-64
2021/11/12 12:09:03;;;;;;;;;;;;;;;20.19;49.66;101540.56;5064539;28;20036;-65
2021/11/12 12:11:28;;;;;;;7.55;5.20;;;;;;;20.18;49.73;101533.63;5063502;28;20359;-65
2021/11/12 12:14:19;;;;;;;8.52;5.18;;;;;;;20.18;49.72;101538.06;5065908;28;20048;-64
2021/11/12 12:17:15;;;;;;;7.32;5.50;;;;;;;20.19;49.48;101526.50;5065789;28;20028;-66
2021/11/12 12:19:45;;;;;;;7.57;5.50;;;;;;;20.26;49.49;101530.13;5031910;28;20179;-65
2021/11/12 13:22:38;;;;;;;7.63;5.50;;;;;;;20.10;49.31;101424.38;5063407;28;20478;-64
2021/11/12 13:25:06;;;;;;;9.05;5.55;;;;;;;20.09;49.25;101428.00;5064209;28;20075;-64
2021/11/12 13:27:31;;;;;;;9.10;6.05;;;;;;;20.01;49.38;101418.28;5057795;28;20493;-65
2021/11/12 13:29:57;;;;;;;7.13;5.60;;;;;;;20.05;49.32;101416.13;5062541;28;20492;-64
2021/11/12 13:32:23;;;;;;;8.00;6.20;;;;;;;20.14;49.05;101415.13;5059762;28;20029;-64
2021/11/12 13:34:48;;;;;;;9.02;5.65;;;;;;;20.09;49.07;101417.44;5060631;28;20048;-64
2021/11/12 13:37:26;;;;;;;8.40;5.80;;;;;;;20.15;49.12;101417.59;5062356;28;20494;-64
2021/11/12 13:40:07;;;;;;;8.55;6.25;;;;;;;20.29;48.67;101418.75;5061460;28;20044;-64
2021/11/12 13:42:50;;;;;;;9.10;5.95;;;;;;;20.40;48.22;101401.69;5059346;28;20038;-64
2021/11/12 13:45:22;;;;;;;8.88;5.95;;;;;;;20.44;48.15;101400.38;5062878;28;20055;-65
2021/11/12 13:48:10;;;;;;;7.90;5.97;;;;;;;20.59;47.96;101393.38;5061669;28;20417;-64
2021/11/12 13:50:39;;;;;;;9.55;6.05;;;;;;;20.67;47.83;101396.00;5060982;28;20063;-65
2021/11/12 13:53:06;;;;;;;8.23;5.80;;;;;;;20.70;47.67;101385.06;5064723;28;20036;-64
2021/11/12 13:55:37;;;;;;;8.20;5.88;;;;;;;20.68;47.81;101386.25;5058208;28;20032;-65
2021/11/12 13:58:04;;;;;;;9.98;6.53;;;;;;;20.63;47.98;101377.97;5058816;28;20041;-64
2021/11/12 14:00:32;;;;;;;9.10;6.05;;;;;;;20.68;47.85;101373.84;5063170;28;20109;-64
2021/11/12 14:03:03;;;;;;;8.02;6.00;;;;;;;20.66;47.89;101372.38;5045475;28;20082;-65
2021/11/12 14:05:29;;;;;;;8.50;5.95;;;;;;;20.57;48.40;101365.44;5057678;28;20036;-65
2021/11/12 14:08:01;;;;;;;9.68;6.68;;;;;;;20.50;48.37;101360.84;5059407;28;20138;-65
2021/11/12 14:10:33;;;;;;;8.68;6.40;;;;;;;20.48;48.45;101360.19;5061412;28;20032;-64
2021/11/12 14:12:58;;;;;;;9.20;6.72;;;;;;;20.46;48.16;101351.56;5060893;28;20089;-64
2021/11/12 14:15:36;;;;;;;8.60;6.55;;;;;;;20.53;48.26;101351.75;5061959;28;20529;-64
2021/11/12 14:24:16;;;;;;;11.90;6.47;;;;;;;20.53;48.43;101338.50;5065424;28;20115;-65
2021/11/12 14:27:04;;;;;;;9.85;6.55;;;;;;;20.55;48.25;101330.41;5044153;28;20044;-65
2021/11/12 14:32:46;;;;;;;11.45;6.68;;;;;;;20.43;48.59;101332.59;5061435;28;20043;-64
2021/11/12 14:35:19;;;;;;;10.32;6.45;;;;;;;20.48;48.39;101333.75;5059280;28;20055;-64
2021/11/12 14:40:35;;;;;;;11.90;6.90;;;;;;;20.43;48.41;101330.75;5059143;28;20111;-65
2021/11/12 14:45:40;;;;;;;10.38;6.97;;;;;;;20.51;48.29;101328.09;5056183;28;20106;-65
2021/11/12 14:48:25;;;;;;;10.65;7.22;;;;;;;20.48;48.44;101327.63;5061468;28;20044;-65
2021/11/12 14:51:03;;;;;;;9.77;7.10;;;;;;;20.38;48.64;101327.78;5061280;28;20037;-64
2021/11/12 14:56:31;;;;;;;12.07;8.15;;;;;;;20.30;48.89;101316.44;5060656;28;20028;-65
2021/11/12 14:59:00;;;;;;;12.48;7.93;;;;;;;20.37;48.58;101315.56;5058140;28;20396;-65
2021/11/12 15:01:29;;;;;;;10.70;7.70;;;;;;;20.36;48.69;101313.09;5057465;28;20751;-65
2021/11/12 15:03:55;;;;;;;14.02;8.43;;;;;;;20.37;48.45;101290.94;5057231;28;20028;-65
2021/11/12 15:06:24;;;;;;;15.35;8.38;;;;;;;20.52;48.16;101286.59;5063347;28;20146;-64
2021/11/12 15:11:20;;;;;;;12.38;7.97;;;;;;;20.46;48.18;101280.16;5059636;28;20052;-65
2021/11/12 15:13:47;;;;;;;12.20;8.82;;;;;;;20.43;48.38;101283.16;5060112;28;20123;-65
2021/11/12 15:18:44;;;;;;;12.90;8.43;;;;;;;20.29;48.66;101270.63;5064762;28;20050;-65
2021/11/12 15:21:25;;;;;;;12.48;8.95;;;;;;;20.23;48.76;101264.19;5068066;28;20036;-65
2021/11/12 15:24:11;;;;;;;14.68;8.55;;;;;;;20.29;48.66;101265.34;5065352;28;20056;-65
2021/11/12 15:29:08;;;;;;;14.40;8.70;;;;;;;20.36;48.32;101261.00;5066925;28;21004;-65
2021/11/12 15:34:03;;;;;;;12.82;8.70;;;;;;;20.37;48.29;101262.66;5057423;28;20040;-65
2021/11/12 15:36:30;;;;;;;15.82;9.07;;;;;;;20.25;48.56;101240.22;5057561;28;20073;-65
2021/11/12 15:39:04;;;;;;;12.25;9.15;;;;;;;20.31;48.42;101233.44;5064251;28;20051;-65
2021/11/12 15:44:21;;;;;;;16.25;9.55;;;;;;;20.22;48.72;101232.63;5023284;28;20056;-66
2021/11/12 15:46:49;;;;;;;15.43;9.18;;;;;;;20.29;48.48;101232.75;5066299;28;20048;-64
2021/11/12 15:49:18;;;;;;;15.15;9.30;;;;;;;20.33;48.58;101228.78;5066173;28;20045;-64
2021/11/12 15:51:50;;;;;;;14.27;9.23;;;;;;;20.29;48.53;101228.31;5066612;28;20479;-64
2021/11/12 15:54:33;;;;;;;13.73;8.68;;;;;;;20.29;48.39;101211.59;5065638;28;20070;-65
2021/11/12 15:57:17;;;;;;;12.55;8.63;;;;;;;20.41;48.11;101215.53;5065170;28;20584;-63
2021/11/12 16:15:23;;;;;;;15.38;9.15;;;;;;;20.29;48.30;101196.59;5062502;28;20375;-64
2021/11/12 16:25:31;;;;;;;13.10;9.13;;;;;;;20.27;48.36;101203.84;5061626;28;20055;-64
2021/11/12 16:28:01;;;;;;;15.48;9.50;;;;;;;20.22;48.27;101204.38;5065946;28;20529;-66
2021/11/12 16:30:35;;;;;;;14.57;9.80;;;;;;;20.29;48.28;101198.38;5064582;28;20405;-66
2021/11/12 16:33:03;;;;;;;14.55;9.65;;;;;;;20.31;48.06;101191.13;5066392;28;20044;-66
2021/11/12 16:35:32;;;;;;;16.48;9.80;;;;;;;20.28;48.23;101186.16;5064420;28;20050;-66
2021/11/12 16:38:07;;;;;;;15.23;10.30;;;;;;;20.24;48.27;101177.75;5063316;28;20098;-65
2021/11/12 16:40:41;;;;;;;16.00;10.20;;;;;;;20.26;47.94;101183.69;5061396;28;20083;-64
2021/11/12 16:43:23;;;;;;;18.20;10.63;;;;;;;20.15;47.84;101165.59;5059573;28;20118;-65
2021/11/12 16:53:57;;;;;;;16.02;10.38;;;;;;;20.24;48.01;101188.34;5046493;28;20096;-65